Impacts METAR Board
IDs:

KLAL - Lakeland Rgnl, FL, US

Updated at: 2000 UTC 21 Sep 2021
Potential Impact None Slight Moderate High
Time 21/08Z 21/09Z 21/10Z 21/11Z 21/12Z 21/13Z 21/14Z 21/15Z 21/16Z 21/17Z 21/18Z 21/19Z 21/20Z
Temp73 72 73 73 73 75 84 84 84 86 88 82
Dewpt68 70 70 70 70 72 72 73 73 72 72 75
Altim29.99 30.00 30.02 30.04 30.05 30.06 30.09 30.07 30.06 30.04 30.01 30.00
VIS10 10 10 10 10 10 10 10 10 10 10 10
CIG-- -- -- -- -- -- -- 30 50 50 60 50
CoverCLRCLRSKCSCTFEWFEWFEWBKNBKNBKNBKNBKN
FltCatVFRVFRVFRVFRVFRVFRVFRMVFRVFRVFRVFRVFR
WX-----------------------RA
WDir000000000000
WSpd0 0 0 0 0 0 0 0 0 0 0 0
WGst-- -- -- -- -- -- -- -- -- -- -- --
Raw hourly METARs
KLAL 210755Z AUTO 00000KT 10SM CLR 23/20 A2999 RMK AO2 PNO
KLAL 210855Z AUTO 00000KT 10SM CLR 22/21 A3000 RMK AO2 PNO
KLAL 210950Z 00000KT 10SM SKC 23/21 A3002
KLAL 211050Z 00000KT 10SM SCT090 23/21 A3004
KLAL 211150Z 00000KT 10SM FEW090 23/21 A3005
KLAL 211250Z 00000KT 10SM FEW090 24/22 A3006

KLAL 211450Z 00000KT 10SM FEW030 29/22 A3009
KLAL 211550Z 00000KT 10SM BKN030 BKN044 29/23 A3007
KLAL 211650Z 00000KT 10SM BKN050 29/23 A3006
KLAL 211750Z 00000KT 10SM SCT035 BKN050 30/22 A3004
KLAL 211850Z 00000KT 10SM SCT034 SCT050 BKN060 31/22 A3001 RMK DST LTG NE-S
KLAL 211950Z 00000KT 10SM -RA BKN050 BKN065 28/24 A3000 RMK DST LTG E-SW



Page loaded:  20:14 UTC  |   01:14 PM Pacific  |   02:14 PM Mountain  |   03:14 PM Central  |   04:14 PM Eastern

 

ADVISORIES

FORECASTS

FORECASTS

OBSERVATIONS

USER TOOLS

ABOUT US